sensor_id;sensor_type;location;lat;lon;timestamp;P1;durP1;ratioP1;P2;durP2;ratioP2
46845;SDS011;33947;46.804;134.252;2022-09-29T00:01:11;2.22;;;1.33;;
46845;SDS011;33947;46.804;134.252;2022-09-29T00:04:16;9.93;;;1.40;;
46845;SDS011;33947;46.804;134.252;2022-09-29T00:07:20;1.70;;;1.37;;
46845;SDS011;33947;46.804;134.252;2022-09-29T00:10:25;2.10;;;1.20;;
46845;SDS011;33947;46.804;134.252;2022-09-29T00:13:30;2.17;;;1.00;;
46845;SDS011;33947;46.804;134.252;2022-09-29T00:16:34;0.90;;;0.90;;
46845;SDS011;33947;46.804;134.252;2022-09-29T00:19:41;0.75;;;0.60;;
46845;SDS011;33947;46.804;134.252;2022-09-29T00:22:48;7.72;;;1.13;;
46845;SDS011;33947;46.804;134.252;2022-09-29T00:26:09;2.92;;;0.60;;
46845;SDS011;33947;46.804;134.252;2022-09-29T00:29:15;5.18;;;1.17;;
46845;SDS011;33947;46.804;134.252;2022-09-29T00:32:29;7.40;;;1.30;;
46845;SDS011;33947;46.804;134.252;2022-09-29T00:35:33;1.05;;;0.60;;
46845;SDS011;33947;46.804;134.252;2022-09-29T00:38:41;4.10;;;1.05;;
46845;SDS011;33947;46.804;134.252;2022-09-29T00:41:47;2.25;;;1.23;;
46845;SDS011;33947;46.804;134.252;2022-09-29T00:45:03;2.20;;;1.20;;
46845;SDS011;33947;46.804;134.252;2022-09-29T00:48:29;0.90;;;0.60;;
46845;SDS011;33947;46.804;134.252;2022-09-29T00:51:35;2.00;;;0.95;;
46845;SDS011;33947;46.804;134.252;2022-09-29T00:54:44;1.40;;;1.00;;
46845;SDS011;33947;46.804;134.252;2022-09-29T01:01:20;2.53;;;1.35;;
46845;SDS011;33947;46.804;134.252;2022-09-29T01:04:26;1.77;;;1.08;;
46845;SDS011;33947;46.804;134.252;2022-09-29T01:07:31;13.87;;;3.83;;
46845;SDS011;33947;46.804;134.252;2022-09-29T01:10:37;10.48;;;4.30;;
46845;SDS011;33947;46.804;134.252;2022-09-29T01:13:46;11.52;;;6.10;;
46845;SDS011;33947;46.804;134.252;2022-09-29T01:16:52;11.75;;;3.22;;
46845;SDS011;33947;46.804;134.252;2022-09-29T01:20:09;13.52;;;6.85;;
46845;SDS011;33947;46.804;134.252;2022-09-29T01:23:24;9.35;;;4.47;;
46845;SDS011;33947;46.804;134.252;2022-09-29T01:33:16;3.25;;;1.00;;
46845;SDS011;33947;46.804;134.252;2022-09-29T01:36:57;2.40;;;0.70;;
46845;SDS011;33947;46.804;134.252;2022-09-29T01:40:16;3.80;;;0.93;;
46845;SDS011;33947;46.804;134.252;2022-09-29T01:43:31;4.68;;;2.78;;
46845;SDS011;33947;46.804;134.252;2022-09-29T01:46:46;11.00;;;5.78;;
46845;SDS011;33947;46.804;134.252;2022-09-29T01:49:59;1.55;;;0.50;;
46845;SDS011;33947;46.804;134.252;2022-09-29T01:53:08;5.68;;;1.30;;
46845;SDS011;33947;46.804;134.252;2022-09-29T01:56:24;3.17;;;1.00;;
46845;SDS011;33947;46.804;134.252;2022-09-29T02:00:02;7.47;;;1.48;;
46845;SDS011;33947;46.804;134.252;2022-09-29T02:03:16;0.60;;;0.30;;
46845;SDS011;33947;46.804;134.252;2022-09-29T02:06:27;1.90;;;0.65;;
46845;SDS011;33947;46.804;134.252;2022-09-29T02:09:45;0.93;;;0.60;;
46845;SDS011;33947;46.804;134.252;2022-09-29T02:12:56;2.20;;;0.75;;
46845;SDS011;33947;46.804;134.252;2022-09-29T02:16:03;1.20;;;0.40;;
46845;SDS011;33947;46.804;134.252;2022-09-29T02:19:17;1.10;;;1.00;;
46845;SDS011;33947;46.804;134.252;2022-09-29T02:22:26;0.77;;;0.50;;
46845;SDS011;33947;46.804;134.252;2022-09-29T02:25:31;2.15;;;0.70;;
46845;SDS011;33947;46.804;134.252;2022-09-29T02:28:41;3.70;;;0.70;;
46845;SDS011;33947;46.804;134.252;2022-09-29T02:31:50;3.65;;;1.20;;
46845;SDS011;33947;46.804;134.252;2022-09-29T02:34:59;0.70;;;0.55;;
46845;SDS011;33947;46.804;134.252;2022-09-29T02:38:09;5.22;;;0.98;;
46845;SDS011;33947;46.804;134.252;2022-09-29T03:00:21;5.07;;;0.98;;
46845;SDS011;33947;46.804;134.252;2022-09-29T03:03:27;1.60;;;0.50;;
46845;SDS011;33947;46.804;134.252;2022-09-29T03:06:34;2.38;;;0.52;;
46845;SDS011;33947;46.804;134.252;2022-09-29T03:09:38;0.85;;;0.60;;
46845;SDS011;33947;46.804;134.252;2022-09-29T03:12:43;0.38;;;0.38;;
46845;SDS011;33947;46.804;134.252;2022-09-29T03:15:51;0.25;;;0.25;;
46845;SDS011;33947;46.804;134.252;2022-09-29T03:18:56;2.40;;;0.70;;
46845;SDS011;33947;46.804;134.252;2022-09-29T03:22:00;3.97;;;1.17;;
46845;SDS011;33947;46.804;134.252;2022-09-29T03:25:06;0.98;;;0.60;;
46845;SDS011;33947;46.804;134.252;2022-09-29T03:28:11;1.02;;;0.47;;
46845;SDS011;33947;46.804;134.252;2022-09-29T03:31:16;0.40;;;0.40;;
46845;SDS011;33947;46.804;134.252;2022-09-29T03:34:21;0.98;;;0.70;;
46845;SDS011;33947;46.804;134.252;2022-09-29T03:37:26;7.93;;;1.90;;
46845;SDS011;33947;46.804;134.252;2022-09-29T03:40:30;1.13;;;0.50;;
46845;SDS011;33947;46.804;134.252;2022-09-29T03:43:35;2.23;;;0.60;;
46845;SDS011;33947;46.804;134.252;2022-09-29T03:46:39;3.67;;;1.17;;
46845;SDS011;33947;46.804;134.252;2022-09-29T03:49:44;0.50;;;0.47;;
46845;SDS011;33947;46.804;134.252;2022-09-29T03:52:48;1.95;;;0.55;;
46845;SDS011;33947;46.804;134.252;2022-09-29T03:55:53;0.80;;;0.50;;
46845;SDS011;33947;46.804;134.252;2022-09-29T03:58:58;1.13;;;0.40;;
46845;SDS011;33947;46.804;134.252;2022-09-29T04:02:03;6.43;;;1.42;;
46845;SDS011;33947;46.804;134.252;2022-09-29T04:05:07;8.00;;;0.90;;
46845;SDS011;33947;46.804;134.252;2022-09-29T04:08:12;7.35;;;3.13;;
46845;SDS011;33947;46.804;134.252;2022-09-29T04:11:17;3.83;;;1.52;;
46845;SDS011;33947;46.804;134.252;2022-09-29T04:14:22;1.15;;;0.80;;
46845;SDS011;33947;46.804;134.252;2022-09-29T04:17:26;3.40;;;1.20;;
46845;SDS011;33947;46.804;134.252;2022-09-29T04:20:31;4.88;;;1.10;;
46845;SDS011;33947;46.804;134.252;2022-09-29T04:23:38;0.40;;;0.40;;
46845;SDS011;33947;46.804;134.252;2022-09-29T04:26:43;1.75;;;0.52;;
46845;SDS011;33947;46.804;134.252;2022-09-29T04:29:48;0.60;;;0.52;;
46845;SDS011;33947;46.804;134.252;2022-09-29T04:32:53;7.20;;;1.77;;
46845;SDS011;33947;46.804;134.252;2022-09-29T04:35:58;2.95;;;0.70;;
46845;SDS011;33947;46.804;134.252;2022-09-29T04:39:03;4.43;;;0.85;;
46845;SDS011;33947;46.804;134.252;2022-09-29T04:42:08;3.45;;;0.57;;
46845;SDS011;33947;46.804;134.252;2022-09-29T04:45:13;0.60;;;0.50;;
46845;SDS011;33947;46.804;134.252;2022-09-29T04:48:17;0.30;;;0.30;;
46845;SDS011;33947;46.804;134.252;2022-09-29T04:51:22;0.40;;;0.40;;
46845;SDS011;33947;46.804;134.252;2022-09-29T04:54:33;0.40;;;0.40;;
46845;SDS011;33947;46.804;134.252;2022-09-29T04:57:42;0.40;;;0.40;;
46845;SDS011;33947;46.804;134.252;2022-09-29T05:00:46;1.50;;;0.55;;
46845;SDS011;33947;46.804;134.252;2022-09-29T05:03:53;1.95;;;0.60;;
46845;SDS011;33947;46.804;134.252;2022-09-29T05:06:57;2.00;;;0.70;;
46845;SDS011;33947;46.804;134.252;2022-09-29T05:10:02;2.27;;;0.70;;
46845;SDS011;33947;46.804;134.252;2022-09-29T05:13:07;0.30;;;0.30;;
46845;SDS011;33947;46.804;134.252;2022-09-29T05:19:17;2.42;;;0.40;;
46845;SDS011;33947;46.804;134.252;2022-09-29T05:22:21;0.30;;;0.30;;
46845;SDS011;33947;46.804;134.252;2022-09-29T05:25:27;1.10;;;0.40;;
46845;SDS011;33947;46.804;134.252;2022-09-29T05:28:31;0.40;;;0.40;;
46845;SDS011;33947;46.804;134.252;2022-09-29T05:31:36;0.85;;;0.40;;
46845;SDS011;33947;46.804;134.252;2022-09-29T05:34:41;0.28;;;0.28;;
46845;SDS011;33947;46.804;134.252;2022-09-29T05:37:46;0.30;;;0.30;;
46845;SDS011;33947;46.804;134.252;2022-09-29T05:40:51;0.83;;;0.40;;
46845;SDS011;33947;46.804;134.252;2022-09-29T05:47:00;0.30;;;0.30;;
46845;SDS011;33947;46.804;134.252;2022-09-29T05:50:05;0.30;;;0.30;;
46845;SDS011;33947;46.804;134.252;2022-09-29T05:53:10;0.43;;;0.40;;
46845;SDS011;33947;46.804;134.252;2022-09-29T05:56:15;0.20;;;0.20;;
46845;SDS011;33947;46.804;134.252;2022-09-29T05:59:29;0.97;;;0.40;;
46845;SDS011;33947;46.804;134.252;2022-09-29T06:02:34;2.67;;;0.50;;
46845;SDS011;33947;46.804;134.252;2022-09-29T06:05:39;0.52;;;0.40;;
46845;SDS011;33947;46.804;134.252;2022-09-29T06:08:45;1.75;;;0.77;;
46845;SDS011;33947;46.804;134.252;2022-09-29T06:11:51;0.57;;;0.30;;
46845;SDS011;33947;46.804;134.252;2022-09-29T06:14:55;0.30;;;0.30;;
46845;SDS011;33947;46.804;134.252;2022-09-29T06:18:00;0.70;;;0.40;;
46845;SDS011;33947;46.804;134.252;2022-09-29T06:21:11;1.53;;;0.63;;
46845;SDS011;33947;46.804;134.252;2022-09-29T06:24:26;2.70;;;0.80;;
46845;SDS011;33947;46.804;134.252;2022-09-29T06:27:31;9.13;;;1.67;;
46845;SDS011;33947;46.804;134.252;2022-09-29T06:30:35;6.13;;;1.20;;
46845;SDS011;33947;46.804;134.252;2022-09-29T06:33:40;1.17;;;0.65;;
46845;SDS011;33947;46.804;134.252;2022-09-29T06:36:45;0.65;;;0.63;;
46845;SDS011;33947;46.804;134.252;2022-09-29T06:40:09;0.65;;;0.60;;
46845;SDS011;33947;46.804;134.252;2022-09-29T06:43:14;3.80;;;0.77;;
46845;SDS011;33947;46.804;134.252;2022-09-29T06:46:18;1.43;;;0.60;;
46845;SDS011;33947;46.804;134.252;2022-09-29T06:49:24;13.65;;;5.90;;
46845;SDS011;33947;46.804;134.252;2022-09-29T06:52:29;7.83;;;3.57;;
46845;SDS011;33947;46.804;134.252;2022-09-29T06:55:34;26.00;;;9.77;;
46845;SDS011;33947;46.804;134.252;2022-09-29T06:58:38;13.53;;;3.50;;
46845;SDS011;33947;46.804;134.252;2022-09-29T07:01:43;14.13;;;2.78;;
46845;SDS011;33947;46.804;134.252;2022-09-29T07:04:53;2.85;;;1.55;;
46845;SDS011;33947;46.804;134.252;2022-09-29T07:07:59;12.77;;;3.20;;
46845;SDS011;33947;46.804;134.252;2022-09-29T07:11:06;5.10;;;1.40;;
46845;SDS011;33947;46.804;134.252;2022-09-29T07:14:12;3.67;;;1.50;;
46845;SDS011;33947;46.804;134.252;2022-09-29T07:17:18;4.90;;;1.90;;
46845;SDS011;33947;46.804;134.252;2022-09-29T07:20:25;18.88;;;2.55;;
46845;SDS011;33947;46.804;134.252;2022-09-29T07:23:31;11.90;;;2.30;;
46845;SDS011;33947;46.804;134.252;2022-09-29T07:26:36;36.58;;;7.18;;
46845;SDS011;33947;46.804;134.252;2022-09-29T07:29:40;16.93;;;3.77;;
46845;SDS011;33947;46.804;134.252;2022-09-29T07:32:54;11.55;;;3.55;;
46845;SDS011;33947;46.804;134.252;2022-09-29T07:36:04;23.98;;;4.40;;
46845;SDS011;33947;46.804;134.252;2022-09-29T07:39:08;8.23;;;2.85;;
46845;SDS011;33947;46.804;134.252;2022-09-29T07:42:16;14.05;;;2.75;;
46845;SDS011;33947;46.804;134.252;2022-09-29T07:45:29;10.32;;;2.42;;
46845;SDS011;33947;46.804;134.252;2022-09-29T07:48:34;6.20;;;1.90;;
46845;SDS011;33947;46.804;134.252;2022-09-29T07:51:39;5.10;;;2.05;;
46845;SDS011;33947;46.804;134.252;2022-09-29T07:54:44;5.10;;;1.77;;
46845;SDS011;33947;46.804;134.252;2022-09-29T07:57:48;4.07;;;1.20;;
46845;SDS011;33947;46.804;134.252;2022-09-29T08:00:56;15.57;;;2.23;;
46845;SDS011;33947;46.804;134.252;2022-09-29T08:04:01;6.63;;;1.70;;
46845;SDS011;33947;46.804;134.252;2022-09-29T08:07:05;8.35;;;2.03;;
46845;SDS011;33947;46.804;134.252;2022-09-29T08:10:10;6.47;;;2.13;;
46845;SDS011;33947;46.804;134.252;2022-09-29T08:13:19;10.10;;;1.70;;
46845;SDS011;33947;46.804;134.252;2022-09-29T08:16:24;11.45;;;2.17;;
46845;SDS011;33947;46.804;134.252;2022-09-29T08:19:29;8.55;;;2.33;;
46845;SDS011;33947;46.804;134.252;2022-09-29T08:22:34;4.85;;;1.50;;
46845;SDS011;33947;46.804;134.252;2022-09-29T08:25:38;6.82;;;1.65;;
46845;SDS011;33947;46.804;134.252;2022-09-29T08:28:49;11.57;;;2.35;;
46845;SDS011;33947;46.804;134.252;2022-09-29T08:32:08;10.43;;;2.15;;
46845;SDS011;33947;46.804;134.252;2022-09-29T08:35:13;16.15;;;4.68;;
46845;SDS011;33947;46.804;134.252;2022-09-29T08:38:18;29.60;;;10.85;;
46845;SDS011;33947;46.804;134.252;2022-09-29T08:44:53;16.92;;;5.43;;
46845;SDS011;33947;46.804;134.252;2022-09-29T08:48:18;24.05;;;6.18;;
46845;SDS011;33947;46.804;134.252;2022-09-29T08:51:41;23.15;;;9.60;;
46845;SDS011;33947;46.804;134.252;2022-09-29T08:54:58;23.30;;;8.90;;
46845;SDS011;33947;46.804;134.252;2022-09-29T08:58:25;18.38;;;6.50;;
46845;SDS011;33947;46.804;134.252;2022-09-29T09:01:34;19.65;;;6.35;;
46845;SDS011;33947;46.804;134.252;2022-09-29T09:05:11;21.15;;;5.22;;
46845;SDS011;33947;46.804;134.252;2022-09-29T09:21:36;22.17;;;4.60;;
46845;SDS011;33947;46.804;134.252;2022-09-29T09:25:04;24.77;;;4.55;;
46845;SDS011;33947;46.804;134.252;2022-09-29T09:28:24;23.55;;;6.70;;
46845;SDS011;33947;46.804;134.252;2022-09-29T09:38:58;18.55;;;5.65;;
46845;SDS011;33947;46.804;134.252;2022-09-29T09:42:40;21.75;;;7.10;;
46845;SDS011;33947;46.804;134.252;2022-09-29T09:45:54;25.85;;;6.55;;
46845;SDS011;33947;46.804;134.252;2022-09-29T09:52:20;15.15;;;6.22;;
46845;SDS011;33947;46.804;134.252;2022-09-29T09:55:26;22.38;;;5.28;;
46845;SDS011;33947;46.804;134.252;2022-09-29T09:58:49;19.38;;;8.38;;
46845;SDS011;33947;46.804;134.252;2022-09-29T10:02:04;26.45;;;11.55;;
46845;SDS011;33947;46.804;134.252;2022-09-29T10:05:15;25.80;;;8.10;;
46845;SDS011;33947;46.804;134.252;2022-09-29T10:08:32;24.00;;;6.32;;
46845;SDS011;33947;46.804;134.252;2022-09-29T10:14:49;23.40;;;10.60;;
46845;SDS011;33947;46.804;134.252;2022-09-29T10:18:14;27.23;;;8.93;;
46845;SDS011;33947;46.804;134.252;2022-09-29T10:21:40;29.65;;;9.65;;
46845;SDS011;33947;46.804;134.252;2022-09-29T10:24:46;25.17;;;6.97;;
46845;SDS011;33947;46.804;134.252;2022-09-29T10:27:52;23.98;;;8.63;;
46845;SDS011;33947;46.804;134.252;2022-09-29T10:30:59;26.17;;;7.13;;
46845;SDS011;33947;46.804;134.252;2022-09-29T10:37:21;29.02;;;7.40;;
46845;SDS011;33947;46.804;134.252;2022-09-29T10:40:56;14.77;;;4.68;;
46845;SDS011;33947;46.804;134.252;2022-09-29T10:44:19;19.88;;;4.50;;
46845;SDS011;33947;46.804;134.252;2022-09-29T10:47:24;51.70;;;16.83;;
46845;SDS011;33947;46.804;134.252;2022-09-29T10:50:29;27.70;;;9.27;;
46845;SDS011;33947;46.804;134.252;2022-09-29T10:53:40;20.85;;;5.65;;
46845;SDS011;33947;46.804;134.252;2022-09-29T10:56:48;16.20;;;4.90;;
46845;SDS011;33947;46.804;134.252;2022-09-29T10:59:54;21.63;;;11.07;;
46845;SDS011;33947;46.804;134.252;2022-09-29T11:03:22;12.57;;;4.80;;
46845;SDS011;33947;46.804;134.252;2022-09-29T11:06:35;12.20;;;4.60;;
46845;SDS011;33947;46.804;134.252;2022-09-29T11:09:45;11.32;;;4.43;;
46845;SDS011;33947;46.804;134.252;2022-09-29T11:12:50;10.03;;;3.50;;
46845;SDS011;33947;46.804;134.252;2022-09-29T11:16:02;13.00;;;3.30;;
46845;SDS011;33947;46.804;134.252;2022-09-29T11:19:17;12.02;;;3.30;;
46845;SDS011;33947;46.804;134.252;2022-09-29T11:22:27;15.15;;;3.20;;
46845;SDS011;33947;46.804;134.252;2022-09-29T11:29:39;4.90;;;1.95;;
46845;SDS011;33947;46.804;134.252;2022-09-29T11:40:07;19.50;;;3.85;;
46845;SDS011;33947;46.804;134.252;2022-09-29T11:43:45;8.25;;;2.60;;
46845;SDS011;33947;46.804;134.252;2022-09-29T11:50:20;9.90;;;3.00;;
46845;SDS011;33947;46.804;134.252;2022-09-29T11:53:51;11.30;;;3.58;;
46845;SDS011;33947;46.804;134.252;2022-09-29T11:57:07;9.77;;;2.80;;
46845;SDS011;33947;46.804;134.252;2022-09-29T12:00:21;9.10;;;2.80;;
46845;SDS011;33947;46.804;134.252;2022-09-29T12:21:56;5.53;;;2.00;;
46845;SDS011;33947;46.804;134.252;2022-09-29T12:25:01;4.45;;;1.73;;
46845;SDS011;33947;46.804;134.252;2022-09-29T12:28:12;7.72;;;1.77;;
46845;SDS011;33947;46.804;134.252;2022-09-29T12:37:53;4.90;;;1.70;;
46845;SDS011;33947;46.804;134.252;2022-09-29T12:41:28;8.40;;;2.67;;
46845;SDS011;33947;46.804;134.252;2022-09-29T12:44:39;12.57;;;2.90;;
46845;SDS011;33947;46.804;134.252;2022-09-29T12:54:45;6.60;;;1.85;;
46845;SDS011;33947;46.804;134.252;2022-09-29T12:58:01;6.00;;;1.85;;
46845;SDS011;33947;46.804;134.252;2022-09-29T13:01:18;9.07;;;1.25;;
46845;SDS011;33947;46.804;134.252;2022-09-29T13:10:57;5.90;;;2.25;;
46845;SDS011;33947;46.804;134.252;2022-09-29T13:17:53;3.95;;;1.65;;
46845;SDS011;33947;46.804;134.252;2022-09-29T13:21:10;3.22;;;1.80;;
46845;SDS011;33947;46.804;134.252;2022-09-29T13:24:37;4.18;;;1.95;;
46845;SDS011;33947;46.804;134.252;2022-09-29T13:28:52;5.10;;;2.25;;
46845;SDS011;33947;46.804;134.252;2022-09-29T13:31:42;11.30;;;2.42;;
46845;SDS011;33947;46.804;134.252;2022-09-29T13:34:56;6.35;;;1.63;;
46845;SDS011;33947;46.804;134.252;2022-09-29T13:38:04;10.40;;;2.30;;
46845;SDS011;33947;46.804;134.252;2022-09-29T13:41:15;4.28;;;1.70;;
46845;SDS011;33947;46.804;134.252;2022-09-29T13:44:39;4.80;;;1.77;;
46845;SDS011;33947;46.804;134.252;2022-09-29T13:47:46;5.53;;;1.98;;
46845;SDS011;33947;46.804;134.252;2022-09-29T13:51:20;2.67;;;1.73;;
46845;SDS011;33947;46.804;134.252;2022-09-29T13:54:27;8.13;;;1.70;;
46845;SDS011;33947;46.804;134.252;2022-09-29T13:57:40;4.57;;;2.03;;
46845;SDS011;33947;46.804;134.252;2022-09-29T14:01:03;3.22;;;1.70;;
46845;SDS011;33947;46.804;134.252;2022-09-29T14:07:40;4.57;;;1.90;;
46845;SDS011;33947;46.804;134.252;2022-09-29T14:10:54;3.95;;;1.60;;
46845;SDS011;33947;46.804;134.252;2022-09-29T14:20:32;2.72;;;1.80;;
46845;SDS011;33947;46.804;134.252;2022-09-29T14:26:51;2.70;;;1.85;;
46845;SDS011;33947;46.804;134.252;2022-09-29T14:36:27;3.42;;;2.00;;
46845;SDS011;33947;46.804;134.252;2022-09-29T14:39:38;3.00;;;1.90;;
46845;SDS011;33947;46.804;134.252;2022-09-29T14:42:42;3.47;;;2.00;;
46845;SDS011;33947;46.804;134.252;2022-09-29T14:49:41;4.65;;;1.80;;
46845;SDS011;33947;46.804;134.252;2022-09-29T15:00:16;4.63;;;2.25;;
46845;SDS011;33947;46.804;134.252;2022-09-29T15:03:27;6.53;;;2.17;;
46845;SDS011;33947;46.804;134.252;2022-09-29T15:06:46;3.22;;;1.92;;
46845;SDS011;33947;46.804;134.252;2022-09-29T15:09:53;5.63;;;2.25;;
46845;SDS011;33947;46.804;134.252;2022-09-29T15:17:07;5.85;;;2.20;;
46845;SDS011;33947;46.804;134.252;2022-09-29T15:20:33;3.50;;;2.30;;
46845;SDS011;33947;46.804;134.252;2022-09-29T15:24:05;4.90;;;2.47;;
46845;SDS011;33947;46.804;134.252;2022-09-29T15:27:22;5.03;;;2.10;;
46845;SDS011;33947;46.804;134.252;2022-09-29T15:30:27;8.18;;;2.60;;
46845;SDS011;33947;46.804;134.252;2022-09-29T15:33:37;5.43;;;2.65;;
46845;SDS011;33947;46.804;134.252;2022-09-29T15:36:51;4.78;;;2.50;;
46845;SDS011;33947;46.804;134.252;2022-09-29T15:39:59;5.75;;;2.75;;
46845;SDS011;33947;46.804;134.252;2022-09-29T15:43:19;5.25;;;2.80;;
46845;SDS011;33947;46.804;134.252;2022-09-29T15:49:38;6.63;;;3.15;;
46845;SDS011;33947;46.804;134.252;2022-09-29T15:52:53;5.65;;;3.00;;
46845;SDS011;33947;46.804;134.252;2022-09-29T15:55:58;5.63;;;3.28;;
46845;SDS011;33947;46.804;134.252;2022-09-29T15:59:03;7.23;;;3.63;;
46845;SDS011;33947;46.804;134.252;2022-09-29T16:02:14;10.05;;;3.97;;
46845;SDS011;33947;46.804;134.252;2022-09-29T16:05:29;7.70;;;3.80;;
46845;SDS011;33947;46.804;134.252;2022-09-29T16:08:53;9.13;;;3.55;;
46845;SDS011;33947;46.804;134.252;2022-09-29T16:12:04;7.38;;;3.60;;
46845;SDS011;33947;46.804;134.252;2022-09-29T16:15:10;4.20;;;2.92;;
46845;SDS011;33947;46.804;134.252;2022-09-29T16:18:45;6.68;;;3.17;;
46845;SDS011;33947;46.804;134.252;2022-09-29T16:21:56;6.53;;;4.40;;
46845;SDS011;33947;46.804;134.252;2022-09-29T16:25:17;6.47;;;3.30;;
46845;SDS011;33947;46.804;134.252;2022-09-29T16:28:28;8.88;;;3.97;;
46845;SDS011;33947;46.804;134.252;2022-09-29T16:31:33;10.02;;;6.63;;
46845;SDS011;33947;46.804;134.252;2022-09-29T16:34:42;10.25;;;5.28;;
46845;SDS011;33947;46.804;134.252;2022-09-29T16:37:46;10.77;;;5.27;;
46845;SDS011;33947;46.804;134.252;2022-09-29T16:40:51;9.38;;;5.38;;
46845;SDS011;33947;46.804;134.252;2022-09-29T16:47:21;9.65;;;5.18;;
46845;SDS011;33947;46.804;134.252;2022-09-29T16:50:26;8.20;;;4.22;;
46845;SDS011;33947;46.804;134.252;2022-09-29T16:53:32;22.67;;;6.15;;
46845;SDS011;33947;46.804;134.252;2022-09-29T16:59:42;9.43;;;6.05;;
46845;SDS011;33947;46.804;134.252;2022-09-29T17:02:51;9.93;;;5.95;;
46845;SDS011;33947;46.804;134.252;2022-09-29T17:05:58;10.55;;;6.30;;
46845;SDS011;33947;46.804;134.252;2022-09-29T17:09:09;10.00;;;6.15;;
46845;SDS011;33947;46.804;134.252;2022-09-29T17:12:19;12.57;;;6.45;;
46845;SDS011;33947;46.804;134.252;2022-09-29T17:15:24;13.43;;;7.07;;
46845;SDS011;33947;46.804;134.252;2022-09-29T17:18:29;16.05;;;6.28;;
46845;SDS011;33947;46.804;134.252;2022-09-29T17:21:34;10.90;;;6.70;;
46845;SDS011;33947;46.804;134.252;2022-09-29T17:24:39;12.23;;;6.93;;
46845;SDS011;33947;46.804;134.252;2022-09-29T17:27:44;15.13;;;7.10;;
46845;SDS011;33947;46.804;134.252;2022-09-29T17:31:08;15.32;;;7.53;;
46845;SDS011;33947;46.804;134.252;2022-09-29T17:34:15;14.65;;;7.53;;
46845;SDS011;33947;46.804;134.252;2022-09-29T17:37:23;17.23;;;7.00;;
46845;SDS011;33947;46.804;134.252;2022-09-29T17:43:54;15.02;;;8.30;;
46845;SDS011;33947;46.804;134.252;2022-09-29T17:46:59;16.77;;;8.02;;
46845;SDS011;33947;46.804;134.252;2022-09-29T17:50:28;16.80;;;8.50;;
46845;SDS011;33947;46.804;134.252;2022-09-29T17:53:38;11.38;;;8.00;;
46845;SDS011;33947;46.804;134.252;2022-09-29T17:56:44;11.23;;;8.38;;
46845;SDS011;33947;46.804;134.252;2022-09-29T17:59:48;14.70;;;8.32;;
46845;SDS011;33947;46.804;134.252;2022-09-29T18:02:53;15.85;;;8.82;;
46845;SDS011;33947;46.804;134.252;2022-09-29T18:05:59;13.85;;;8.63;;
46845;SDS011;33947;46.804;134.252;2022-09-29T18:09:11;14.57;;;9.00;;
46845;SDS011;33947;46.804;134.252;2022-09-29T18:12:23;17.08;;;8.75;;
46845;SDS011;33947;46.804;134.252;2022-09-29T18:15:28;13.32;;;8.70;;
46845;SDS011;33947;46.804;134.252;2022-09-29T18:18:32;13.70;;;8.65;;
46845;SDS011;33947;46.804;134.252;2022-09-29T18:21:38;15.63;;;9.18;;
46845;SDS011;33947;46.804;134.252;2022-09-29T18:24:42;17.25;;;9.95;;
46845;SDS011;33947;46.804;134.252;2022-09-29T18:27:47;16.90;;;9.65;;
46845;SDS011;33947;46.804;134.252;2022-09-29T18:31:02;15.73;;;9.15;;
46845;SDS011;33947;46.804;134.252;2022-09-29T18:34:15;14.70;;;9.48;;
46845;SDS011;33947;46.804;134.252;2022-09-29T18:37:21;17.88;;;9.40;;
46845;SDS011;33947;46.804;134.252;2022-09-29T18:40:26;13.33;;;8.33;;
46845;SDS011;33947;46.804;134.252;2022-09-29T18:43:32;18.05;;;10.02;;
46845;SDS011;33947;46.804;134.252;2022-09-29T18:46:38;19.85;;;9.85;;
46845;SDS011;33947;46.804;134.252;2022-09-29T18:52:49;17.60;;;10.27;;
46845;SDS011;33947;46.804;134.252;2022-09-29T18:55:56;20.45;;;10.07;;
46845;SDS011;33947;46.804;134.252;2022-09-29T18:59:05;19.55;;;10.07;;
46845;SDS011;33947;46.804;134.252;2022-09-29T19:02:12;17.95;;;10.25;;
46845;SDS011;33947;46.804;134.252;2022-09-29T19:05:20;21.15;;;10.85;;
46845;SDS011;33947;46.804;134.252;2022-09-29T19:08:31;16.85;;;10.27;;
46845;SDS011;33947;46.804;134.252;2022-09-29T19:11:35;16.48;;;9.23;;
46845;SDS011;33947;46.804;134.252;2022-09-29T19:14:40;17.07;;;9.27;;
46845;SDS011;33947;46.804;134.252;2022-09-29T19:17:46;13.00;;;9.35;;
46845;SDS011;33947;46.804;134.252;2022-09-29T19:20:54;17.65;;;8.52;;
46845;SDS011;33947;46.804;134.252;2022-09-29T19:24:01;13.82;;;9.23;;
46845;SDS011;33947;46.804;134.252;2022-09-29T19:27:05;19.25;;;9.80;;
46845;SDS011;33947;46.804;134.252;2022-09-29T19:30:11;15.43;;;9.02;;
46845;SDS011;33947;46.804;134.252;2022-09-29T19:33:18;13.40;;;9.10;;
46845;SDS011;33947;46.804;134.252;2022-09-29T19:36:24;18.23;;;10.02;;
46845;SDS011;33947;46.804;134.252;2022-09-29T19:39:29;13.95;;;8.90;;
46845;SDS011;33947;46.804;134.252;2022-09-29T19:42:34;19.85;;;11.77;;
46845;SDS011;33947;46.804;134.252;2022-09-29T19:45:39;20.58;;;12.02;;
46845;SDS011;33947;46.804;134.252;2022-09-29T19:48:44;21.45;;;11.02;;
46845;SDS011;33947;46.804;134.252;2022-09-29T19:51:49;19.15;;;11.55;;
46845;SDS011;33947;46.804;134.252;2022-09-29T19:54:59;28.70;;;14.95;;
46845;SDS011;33947;46.804;134.252;2022-09-29T19:58:08;30.65;;;17.25;;
46845;SDS011;33947;46.804;134.252;2022-09-29T20:01:13;32.92;;;16.27;;
46845;SDS011;33947;46.804;134.252;2022-09-29T20:04:18;33.30;;;15.37;;
46845;SDS011;33947;46.804;134.252;2022-09-29T20:07:30;29.33;;;15.25;;
46845;SDS011;33947;46.804;134.252;2022-09-29T20:10:35;27.40;;;12.80;;
46845;SDS011;33947;46.804;134.252;2022-09-29T20:13:40;23.97;;;13.30;;
46845;SDS011;33947;46.804;134.252;2022-09-29T20:16:48;18.63;;;11.93;;
46845;SDS011;33947;46.804;134.252;2022-09-29T20:19:54;24.73;;;10.93;;
46845;SDS011;33947;46.804;134.252;2022-09-29T20:22:59;28.88;;;12.88;;
46845;SDS011;33947;46.804;134.252;2022-09-29T20:26:04;22.20;;;12.85;;
46845;SDS011;33947;46.804;134.252;2022-09-29T20:29:14;19.20;;;10.93;;
46845;SDS011;33947;46.804;134.252;2022-09-29T20:32:22;24.70;;;11.98;;
46845;SDS011;33947;46.804;134.252;2022-09-29T20:35:27;23.55;;;12.23;;
46845;SDS011;33947;46.804;134.252;2022-09-29T20:38:32;42.83;;;13.03;;
46845;SDS011;33947;46.804;134.252;2022-09-29T20:41:41;25.92;;;11.73;;
46845;SDS011;33947;46.804;134.252;2022-09-29T20:44:46;24.15;;;12.77;;
46845;SDS011;33947;46.804;134.252;2022-09-29T20:47:57;23.00;;;11.25;;
46845;SDS011;33947;46.804;134.252;2022-09-29T20:51:02;29.48;;;12.85;;
46845;SDS011;33947;46.804;134.252;2022-09-29T20:54:08;20.92;;;12.07;;
46845;SDS011;33947;46.804;134.252;2022-09-29T20:57:14;20.13;;;11.57;;
46845;SDS011;33947;46.804;134.252;2022-09-29T21:00:20;18.70;;;11.80;;
46845;SDS011;33947;46.804;134.252;2022-09-29T21:03:24;20.38;;;12.35;;
46845;SDS011;33947;46.804;134.252;2022-09-29T21:06:30;31.00;;;12.83;;
46845;SDS011;33947;46.804;134.252;2022-09-29T21:09:37;30.65;;;12.40;;
46845;SDS011;33947;46.804;134.252;2022-09-29T21:12:41;26.80;;;14.55;;
46845;SDS011;33947;46.804;134.252;2022-09-29T21:15:48;23.23;;;12.45;;